KPBF/PBF METAR and TAF weather

Enter ICAO airport designator
Station Type Date Time Source
KPBF METAR 2022/01/27 21:53 UTC NOAA

KPBF 272153Z AUTO 03012KT 10SM OVC075 09/M04 A3025 RMK AO2 SLP242 T00941044


Station Type Date Time Source
KPBF Decoded METAR 2022/01/27 21:53 UTC NOAA

PINE BLUFF GRIDER FIELD, AR, United States (KPBF) 34-11N 091-56W 62M
Jan 27, 2022 - 04:53 PM EST / 2022.01.27 2153 UTC
Wind: from the NNE (030 degrees) at 14 MPH (12 KT):0
Visibility: 10 mile(s):0
Sky conditions: overcast
Temperature: 48.9 F (9.4 C)
Dew Point: 24.1 F (-4.4 C)
Relative Humidity: 37%
Pressure (altimeter): 30.25 in. Hg (1024 hPa)
ob: KPBF 272153Z AUTO 03012KT 10SM OVC075 09/M04 A3025 RMK AO2 SLP242 T00941044
cycle: 22

Station Type Date Time Source
KPBF TAF 2022/01/27 18:36 UTC NOAA

TAF KPBF 271733Z 2718/2818 03003KT P6SM SCT050
FM280000 35003KT P6SM OVC100
FM281500 35010KT P6SM SCT250

Example: see airport list